M I D A S
Marine Information and Data Acquisition System
Tripno 2007 of the Zeeleeuw from 2010-09-23 07:11:26 to 2010-09-23 15:15:19
Back to CruiseResearch ActivitiesStationsMapUnderway DataData graphs

EquipmentUnitsComment
TimeDGPSUTC
LatitudeDGPSDM.mWGS84
LongitudeDGPSDM.mWGS84
HeadingGyrodeg 
SOGDGPSknotsSpeed over ground
COGDGPSdegCourse over ground
DepthEcho soundermeters200 kHz
Missing or incorrect values are displayed as -999
Navigation data collected by the RV Zeeleeuw from 2010-09-23 06:49:20 to 2010-09-23 15:23:59
                                                                                    Next 1000 lines
Time Latitude Longitude Heading SOG COG Depth
2010-09-23 06:49:29 51°13.664 2°55.96 125 0.1 198 -999
2010-09-23 06:49:35 51°13.664 2°55.961 125 0.1 189 -999
2010-09-23 06:49:40 51°13.665 2°55.961 125 -999 211 -999
2010-09-23 06:49:45 51°13.665 2°55.961 125 -999 312 -999
2010-09-23 06:49:50 51°13.665 2°55.961 125 -999 297 -999
2010-09-23 06:49:55 51°13.665 2°55.961 125 -999 307 -999
2010-09-23 06:50:00 51°13.665 2°55.961 125 -999 303 -999
2010-09-23 06:50:04 51°13.665 2°55.961 125 0.1 306 -999
2010-09-23 06:50:10 51°13.665 2°55.961 125 -999 312 -999
2010-09-23 06:50:15 51°13.665 2°55.961 125 -999 299 -999
2010-09-23 06:50:19 51°13.665 2°55.961 125 0.1 303 -999
2010-09-23 06:50:24 51°13.665 2°55.961 125 -999 339 -999
2010-09-23 06:50:29 51°13.665 2°55.961 125 -999 331 -999
2010-09-23 06:50:35 51°13.664 2°55.961 125 0.1 102 -999
2010-09-23 06:50:40 51°13.664 2°55.961 125 -999 98 -999
2010-09-23 06:50:45 51°13.664 2°55.961 125 -999 309 -999
2010-09-23 06:50:50 51°13.665 2°55.961 125 -999 280 -999
2010-09-23 06:50:55 51°13.665 2°55.961 125 0.1 315 -999
2010-09-23 06:50:59 51°13.665 2°55.961 125 0.1 -999 -999
2010-09-23 06:51:04 51°13.665 2°55.961 125 0.1 351 -999
2010-09-23 06:51:10 51°13.664 2°55.961 125 0.1 107 -999
2010-09-23 06:51:15 51°13.664 2°55.961 125 0.1 127 -999
2010-09-23 06:51:20 51°13.664 2°55.961 125 -999 149 -999
2010-09-23 06:51:25 51°13.664 2°55.961 125 0.1 128 -999
2010-09-23 06:51:30 51°13.664 2°55.961 125 -999 147 -999
2010-09-23 06:51:35 51°13.664 2°55.961 125 -999 198 -999
2010-09-23 06:51:40 51°13.664 2°55.961 125 -999 187 -999
2010-09-23 06:51:45 51°13.664 2°55.961 125 -999 196 -999
2010-09-23 06:51:50 51°13.664 2°55.961 125 -999 300 -999
2010-09-23 06:51:55 51°13.664 2°55.96 125 -999 272 -999
2010-09-23 06:52:00 51°13.664 2°55.96 125 -999 282 -999
2010-09-23 06:52:05 51°13.664 2°55.961 125 -999 128 -999
2010-09-23 06:52:10 51°13.664 2°55.96 125 -999 137 -999
2010-09-23 06:52:15 51°13.664 2°55.96 125 -999 318 -999
2010-09-23 06:52:20 51°13.664 2°55.96 125 -999 339 -999
2010-09-23 06:52:25 51°13.664 2°55.96 125 -999 17 -999
2010-09-23 06:52:30 51°13.663 2°55.961 125 -999 93 -999
2010-09-23 06:52:35 51°13.663 2°55.96 125 -999 312 -999
2010-09-23 06:52:40 51°13.663 2°55.961 125 -999 343 -999
2010-09-23 06:52:45 51°13.663 2°55.961 125 -999 88 -999
2010-09-23 06:52:50 51°13.663 2°55.961 125 -999 75 -999
2010-09-23 06:52:54 51°13.663 2°55.961 125 -999 312 -999
2010-09-23 06:52:59 51°13.663 2°55.961 125 -999 52 -999
2010-09-23 06:53:04 51°13.663 2°55.961 125 -999 70 -999
2010-09-23 06:53:10 51°13.663 2°55.961 125 -999 305 -999
2010-09-23 06:53:15 51°13.663 2°55.961 125 -999 350 -999
2010-09-23 06:53:20 51°13.663 2°55.961 125 -999 336 -999
2010-09-23 06:53:25 51°13.663 2°55.961 125 0.1 309 -999
2010-09-23 06:53:30 51°13.663 2°55.961 124.9 -999 335 -999
2010-09-23 06:53:35 51°13.663 2°55.961 124.7 -999 182 -999
2010-09-23 06:53:40 51°13.663 2°55.961 124.5 -999 37 -999
2010-09-23 06:53:45 51°13.663 2°55.961 124.5 -999 268 -999
2010-09-23 06:53:50 51°13.663 2°55.961 124.5 -999 196 -999
2010-09-23 06:53:55 51°13.663 2°55.961 124.5 -999 340 -999
2010-09-23 06:54:00 51°13.663 2°55.961 124.7 -999 48 -999
2010-09-23 06:54:05 51°13.663 2°55.961 124.9 -999 149 -999
2010-09-23 06:54:10 51°13.663 2°55.961 125.1 -999 318 -999
2010-09-23 06:54:15 51°13.663 2°55.961 125.1 -999 337 -999
2010-09-23 06:54:20 51°13.663 2°55.961 125.1 -999 201 -999
2010-09-23 06:54:25 51°13.663 2°55.961 125 0.1 352 -999
2010-09-23 06:54:30 51°13.663 2°55.961 124.9 0.1 334 -999
2010-09-23 06:54:35 51°13.663 2°55.961 124.9 -999 346 -999
2010-09-23 06:54:40 51°13.663 2°55.961 124.9 -999 135 -999
2010-09-23 06:54:45 51°13.663 2°55.961 125 -999 294 -999
2010-09-23 06:54:49 51°13.663 2°55.961 125 0.1 344 -999
2010-09-23 06:54:54 51°13.663 2°55.961 124.9 0.1 334 -999
2010-09-23 06:55:00 51°13.663 2°55.961 124.6 -999 94 -999
2010-09-23 06:55:04 51°13.663 2°55.961 124.4 -999 124 -999
2010-09-23 06:55:09 51°13.663 2°55.961 124.2 -999 292 -999
2010-09-23 06:55:14 51°13.663 2°55.96 124.2 -999 301 -999
2010-09-23 06:55:20 51°13.663 2°55.961 124.4 0.1 94 -999
2010-09-23 06:55:24 51°13.662 2°55.961 124.9 0.1 134 -999
2010-09-23 06:55:30 51°13.663 2°55.961 125.2 -999 124 -999
2010-09-23 06:55:34 51°13.663 2°55.961 125.4 0.1 354 -999
2010-09-23 06:55:39 51°13.663 2°55.961 125.4 0.1 344 -999
2010-09-23 06:55:45 51°13.662 2°55.961 125.2 0.1 176 -999
2010-09-23 06:55:50 51°13.662 2°55.961 125 0.1 169 -999
2010-09-23 06:55:55 51°13.663 2°55.961 124.9 0.1 292 -999
2010-09-23 06:56:00 51°13.663 2°55.961 124.9 -999 53 -999
2010-09-23 06:56:05 51°13.663 2°55.961 124.8 -999 127 -999
2010-09-23 06:56:10 51°13.663 2°55.961 124.8 -999 212 -999
2010-09-23 06:56:15 51°13.663 2°55.961 124.8 -999 258 -999
2010-09-23 06:56:20 51°13.663 2°55.961 124.8 -999 346 -999
2010-09-23 06:56:25 51°13.662 2°55.961 124.9 -999 185 -999
2010-09-23 06:56:30 51°13.662 2°55.961 125 0.1 139 -999
2010-09-23 06:56:35 51°13.662 2°55.961 125.3 -999 319 -999
2010-09-23 06:56:40 51°13.662 2°55.961 125.3 -999 261 -999
2010-09-23 06:56:45 51°13.662 2°55.961 125 -999 27 -999
2010-09-23 06:56:50 51°13.662 2°55.961 124.7 0.1 344 -999
2010-09-23 06:56:55 51°13.662 2°55.96 124.2 0.1 295 -999
2010-09-23 06:57:00 51°13.663 2°55.96 123.8 0.2 302 -999
2010-09-23 06:57:05 51°13.662 2°55.96 123.6 -999 6 -999
2010-09-23 06:57:10 51°13.662 2°55.96 123.7 -999 351 -999
2010-09-23 06:57:15 51°13.662 2°55.96 124.1 -999 343 -999
2010-09-23 06:57:20 51°13.662 2°55.96 124.4 -999 6 -999
2010-09-23 06:57:25 51°13.662 2°55.961 124.9 -999 1 -999
2010-09-23 06:57:30 51°13.662 2°55.961 125.2 -999 87 -999
2010-09-23 06:57:35 51°13.662 2°55.961 125.5 -999 171 -999
2010-09-23 06:57:40 51°13.662 2°55.961 125.5 -999 133 -999
2010-09-23 06:57:45 51°13.662 2°55.961 125.4 0.1 192 -999
2010-09-23 06:57:50 51°13.663 2°55.961 125.2 -999 356 -999
2010-09-23 06:57:55 51°13.663 2°55.961 125.1 0.1 318 -999
2010-09-23 06:58:00 51°13.663 2°55.961 124.8 0.1 343 -999
2010-09-23 06:58:05 51°13.663 2°55.961 124.6 -999 184 -999
2010-09-23 06:58:10 51°13.663 2°55.961 124.6 -999 42 -999
2010-09-23 06:58:15 51°13.663 2°55.961 124.6 -999 279 -999
2010-09-23 06:58:20 51°13.663 2°55.961 124.6 -999 104 -999
2010-09-23 06:58:25 51°13.663 2°55.961 124.7 -999 96 -999
2010-09-23 06:58:30 51°13.663 2°55.961 124.8 -999 274 -999
2010-09-23 06:58:35 51°13.663 2°55.961 124.9 -999 359 -999
2010-09-23 06:58:40 51°13.663 2°55.961 125 -999 96 -999
2010-09-23 06:58:45 51°13.663 2°55.961 125.2 0.1 154 -999
2010-09-23 06:58:50 51°13.663 2°55.961 125.3 0.1 181 -999
2010-09-23 06:58:55 51°13.663 2°55.961 125.3 0.1 160 -999
2010-09-23 06:59:00 51°13.663 2°55.961 125.3 -999 20 -999
2010-09-23 06:59:05 51°13.663 2°55.961 125.3 -999 272 -999
2010-09-23 06:59:10 51°13.663 2°55.961 125.3 -999 231 -999
2010-09-23 06:59:15 51°13.663 2°55.96 125.3 0.1 332 -999
2010-09-23 06:59:20 51°13.663 2°55.961 125.1 -999 333 -999
2010-09-23 06:59:25 51°13.663 2°55.961 124.7 -999 9 -999
2010-09-23 06:59:30 51°13.663 2°55.96 124.5 -999 290 -999
2010-09-23 06:59:35 51°13.663 2°55.96 124.5 -999 293 -999
2010-09-23 06:59:40 51°13.663 2°55.96 124.5 -999 232 -999
2010-09-23 06:59:45 51°13.662 2°55.961 124.5 -999 194 -999
2010-09-23 06:59:50 51°13.663 2°55.961 124.5 -999 136 -999
2010-09-23 06:59:55 51°13.663 2°55.961 124.6 0.1 121 -999
2010-09-23 07:00:00 51°13.663 2°55.961 124.9 0.1 159 -999
2010-09-23 07:00:05 51°13.663 2°55.961 125.2 0.1 162 -999
2010-09-23 07:00:10 51°13.662 2°55.961 125.3 0.1 166 -999
2010-09-23 07:00:15 51°13.662 2°55.961 125.2 0.2 173 -999
2010-09-23 07:00:20 51°13.663 2°55.961 125.2 -999 129 -999
2010-09-23 07:00:25 51°13.663 2°55.961 125.1 -999 293 -999
2010-09-23 07:00:30 51°13.663 2°55.961 125.1 -999 349 -999
2010-09-23 07:00:35 51°13.663 2°55.96 125.1 0.1 274 -999
2010-09-23 07:00:40 51°13.663 2°55.96 125 0.1 311 -999
2010-09-23 07:00:45 51°13.663 2°55.961 124.9 -999 220 -999
2010-09-23 07:00:50 51°13.663 2°55.961 124.9 -999 211 -999
2010-09-23 07:00:55 51°13.663 2°55.961 125 -999 210 -999
2010-09-23 07:01:00 51°13.663 2°55.961 125.1 0.1 142 -999
2010-09-23 07:01:05 51°13.663 2°55.961 125.1 -999 108 -999
2010-09-23 07:01:10 51°13.663 2°55.961 125.1 0.1 323 -999
2010-09-23 07:01:15 51°13.663 2°55.961 125 -999 286 -999
2010-09-23 07:01:20 51°13.663 2°55.961 124.9 -999 184 -999
2010-09-23 07:01:25 51°13.663 2°55.961 124.8 -999 109 -999
2010-09-23 07:01:30 51°13.663 2°55.961 124.9 -999 281 -999
2010-09-23 07:01:35 51°13.663 2°55.961 124.9 0.1 1 -999
2010-09-23 07:01:40 51°13.663 2°55.961 -999 -999 335 -999
2010-09-23 07:01:45 51°13.663 2°55.961 124.9 -999 325 -999
2010-09-23 07:01:50 51°13.663 2°55.961 124.9 -999 24 -999
2010-09-23 07:01:55 51°13.663 2°55.961 124.9 -999 156 -999
2010-09-23 07:02:00 51°13.663 2°55.961 124.9 -999 170 -999
2010-09-23 07:02:05 51°13.663 2°55.961 124.9 0.1 137 -999
2010-09-23 07:02:10 51°13.663 2°55.961 124.9 -999 200 -999
2010-09-23 07:02:15 51°13.663 2°55.961 124.9 -999 317 -999
2010-09-23 07:02:20 51°13.663 2°55.961 125 -999 334 -999
2010-09-23 07:02:25 51°13.663 2°55.961 125 -999 136 -999
2010-09-23 07:02:30 51°13.662 2°55.961 125 -999 118 -999
2010-09-23 07:02:34 51°13.662 2°55.961 125.1 -999 27 -999
2010-09-23 07:02:39 51°13.662 2°55.961 125.1 -999 56 -999
2010-09-23 07:02:45 51°13.662 2°55.961 125.1 -999 41 -999
2010-09-23 07:02:50 51°13.662 2°55.961 125.1 -999 287 -999
2010-09-23 07:02:55 51°13.662 2°55.961 125.1 -999 16 -999
2010-09-23 07:03:00 51°13.662 2°55.961 125.1 -999 234 -999
2010-09-23 07:03:05 51°13.662 2°55.961 125.1 -999 77 -999
2010-09-23 07:03:10 51°13.662 2°55.961 125.1 -999 139 -999
2010-09-23 07:03:15 51°13.662 2°55.961 125.1 -999 115 -999
2010-09-23 07:03:20 51°13.662 2°55.961 125.1 -999 123 -999
2010-09-23 07:03:25 51°13.662 2°55.961 125.1 0.1 169 -999
2010-09-23 07:03:30 51°13.662 2°55.961 125.1 -999 305 -999
2010-09-23 07:03:35 51°13.662 2°55.961 125.1 -999 83 -999
2010-09-23 07:03:40 51°13.662 2°55.961 125.2 -999 277 -999
2010-09-23 07:03:44 51°13.663 2°55.96 125.1 0.1 336 -999
2010-09-23 07:03:49 51°13.663 2°55.961 125 -999 357 -999
2010-09-23 07:03:54 51°13.662 2°55.961 125 -999 157 -999
2010-09-23 07:04:00 51°13.662 2°55.96 125 0.1 300 -999
2010-09-23 07:04:05 51°13.662 2°55.96 125 0.1 300 -999
2010-09-23 07:04:10 51°13.662 2°55.96 125 -999 336 -999
2010-09-23 07:04:15 51°13.662 2°55.96 125 -999 89 -999
2010-09-23 07:04:19 51°13.662 2°55.96 125 -999 89 4.9
2010-09-23 07:04:24 51°13.662 2°55.96 125 -999 104 5
2010-09-23 07:04:29 51°13.662 2°55.96 125 -999 277 4.7
2010-09-23 07:04:33 51°13.662 2°55.96 125 0.1 335 4.9
2010-09-23 07:04:38 51°13.662 2°55.96 125.1 -999 262 4.8
2010-09-23 07:04:44 51°13.662 2°55.96 125.1 -999 281 4.8
2010-09-23 07:04:49 51°13.662 2°55.96 125.1 -999 320 4.8
2010-09-23 07:04:53 51°13.662 2°55.96 125.1 -999 135 4.7
2010-09-23 07:04:58 51°13.662 2°55.96 125.2 -999 167 4.7
2010-09-23 07:05:03 51°13.662 2°55.96 125.2 -999 196 4.9
2010-09-23 07:05:08 51°13.662 2°55.96 125.2 0.1 307 4.7
2010-09-23 07:05:13 51°13.662 2°55.96 125.3 0.1 329 4.7
2010-09-23 07:05:17 51°13.662 2°55.961 125.5 0.1 147 4.7
2010-09-23 07:05:22 51°13.662 2°55.96 125.5 -999 244 4.7
2010-09-23 07:05:27 51°13.662 2°55.96 125.5 0.1 332 4.8
2010-09-23 07:05:32 51°13.662 2°55.96 125.5 -999 13 4.7
2010-09-23 07:05:37 51°13.662 2°55.961 125.5 -999 165 4.8
2010-09-23 07:05:41 51°13.662 2°55.961 125.5 -999 87 4.8
2010-09-23 07:05:46 51°13.662 2°55.96 125.5 -999 219 4.8
2010-09-23 07:05:51 51°13.662 2°55.96 125.5 -999 153 4.7
2010-09-23 07:05:56 51°13.662 2°55.961 125.4 -999 101 4.8
2010-09-23 07:06:01 51°13.662 2°55.96 125.3 -999 346 4.8
2010-09-23 07:06:05 51°13.662 2°55.96 125.2 -999 359 4.8
2010-09-23 07:06:11 51°13.662 2°55.96 125.2 -999 148 4.8
2010-09-23 07:06:16 51°13.662 2°55.96 125.2 -999 217 4.8
2010-09-23 07:06:21 51°13.662 2°55.96 125.2 -999 168 4.8
2010-09-23 07:06:26 51°13.662 2°55.96 125.3 -999 355 4.8
2010-09-23 07:06:31 51°13.662 2°55.96 125.5 0.1 318 4.8
2010-09-23 07:06:36 51°13.662 2°55.96 125.5 -999 305 4.7
2010-09-23 07:06:41 51°13.662 2°55.96 125.5 -999 298 4.8
2010-09-23 07:06:46 51°13.662 2°55.961 125.5 0.1 141 4.7
2010-09-23 07:06:51 51°13.662 2°55.96 125.5 -999 253 4.7
2010-09-23 07:06:56 51°13.662 2°55.96 125.5 -999 302 4.7
2010-09-23 07:07:01 51°13.662 2°55.96 125.6 -999 333 4.8
2010-09-23 07:07:06 51°13.663 2°55.96 125.7 -999 11 4.7
2010-09-23 07:07:11 51°13.662 2°55.96 125.7 -999 246 4.8
2010-09-23 07:07:16 51°13.662 2°55.96 125.7 0.1 210 4.7
2010-09-23 07:07:21 51°13.662 2°55.961 125.7 -999 151 4.8
2010-09-23 07:07:26 51°13.662 2°55.96 125.7 -999 147 4.8
2010-09-23 07:07:31 51°13.662 2°55.96 125.6 -999 172 4.9
2010-09-23 07:07:36 51°13.662 2°55.96 125.6 -999 245 4.8
2010-09-23 07:07:41 51°13.663 2°55.96 125.6 -999 295 4.8
2010-09-23 07:07:46 51°13.663 2°55.96 125.5 0.1 325 4.8
2010-09-23 07:07:51 51°13.663 2°55.96 125.5 -999 39 4.8
2010-09-23 07:07:56 51°13.662 2°55.961 125.5 0.1 175 4.8
2010-09-23 07:08:01 51°13.662 2°55.96 125.5 -999 190 4.8
2010-09-23 07:08:06 51°13.662 2°55.96 125.5 -999 298 4.8
2010-09-23 07:08:11 51°13.663 2°55.96 125.5 0.1 3 4.8
2010-09-23 07:08:16 51°13.662 2°55.96 125.5 -999 145 4.8
2010-09-23 07:08:21 51°13.663 2°55.96 125.5 -999 297 4.8
2010-09-23 07:08:26 51°13.663 2°55.96 125.5 -999 146 4.8
2010-09-23 07:08:31 51°13.663 2°55.96 125.5 0.1 288 4.9
2010-09-23 07:08:36 51°13.663 2°55.96 125.5 0.1 340 5
2010-09-23 07:08:41 51°13.663 2°55.96 125.5 -999 19 5
2010-09-23 07:08:46 51°13.663 2°55.96 125.5 -999 353 4.8
2010-09-23 07:08:51 51°13.663 2°55.96 125.5 -999 135 5
2010-09-23 07:08:56 51°13.663 2°55.96 125.4 0.1 158 4.9
2010-09-23 07:09:01 51°13.663 2°55.96 125.4 -999 311 5
2010-09-23 07:09:06 51°13.663 2°55.96 125.4 0.1 316 4.8
2010-09-23 07:09:11 51°13.663 2°55.96 125.4 -999 127 4.9
2010-09-23 07:09:16 51°13.663 2°55.96 125.4 -999 155 4.9
2010-09-23 07:09:21 51°13.663 2°55.96 125.4 -999 175 4.9
2010-09-23 07:09:26 51°13.663 2°55.961 125.4 0.1 149 5
2010-09-23 07:09:31 51°13.663 2°55.96 125.4 -999 1 4.9
2010-09-23 07:09:36 51°13.663 2°55.96 125.4 -999 309 5
2010-09-23 07:09:41 51°13.663 2°55.96 125.4 -999 231 4.9
2010-09-23 07:09:46 51°13.663 2°55.96 125.4 -999 178 5
2010-09-23 07:09:51 51°13.663 2°55.961 125.5 -999 141 4.9
2010-09-23 07:09:57 51°13.662 2°55.961 125.5 -999 248 4.9
2010-09-23 07:10:01 51°13.662 2°55.961 125.4 -999 115 4.8
2010-09-23 07:10:05 51°13.662 2°55.96 125.4 -999 248 4.9
2010-09-23 07:10:11 51°13.662 2°55.961 125.4 -999 83 5
2010-09-23 07:10:16 51°13.662 2°55.961 125.4 -999 160 4.8
2010-09-23 07:10:21 51°13.662 2°55.96 125.7 -999 235 4.8
2010-09-23 07:10:26 51°13.662 2°55.961 126 -999 313 4.9
2010-09-23 07:10:31 51°13.663 2°55.961 126.2 -999 256 4.9
2010-09-23 07:10:36 51°13.663 2°55.961 126.4 -999 358 4.9
2010-09-23 07:10:41 51°13.663 2°55.96 126.4 0.1 326 4.9
2010-09-23 07:10:46 51°13.663 2°55.961 126.4 -999 333 4.9
2010-09-23 07:10:50 51°13.663 2°55.961 126.3 0.1 120 4.9
2010-09-23 07:10:56 51°13.662 2°55.961 126.3 0.1 137 4.9
2010-09-23 07:11:01 51°13.663 2°55.961 126.3 -999 290 4.9
2010-09-23 07:11:06 51°13.663 2°55.961 126.3 0.1 295 4.9
2010-09-23 07:11:11 51°13.663 2°55.961 126.3 -999 345 4.9
2010-09-23 07:11:16 51°13.663 2°55.961 126.3 -999 329 4.9
2010-09-23 07:11:21 51°13.663 2°55.961 126.3 -999 211 4.9
2010-09-23 07:11:26 51°13.663 2°55.961 126.3 -999 175 4.9
2010-09-23 07:11:30 51°13.663 2°55.961 126.3 -999 334 4.8
2010-09-23 07:11:36 51°13.663 2°55.961 126.3 -999 332 5
2010-09-23 07:11:41 51°13.663 2°55.961 126.3 -999 323 4.9
2010-09-23 07:11:46 51°13.662 2°55.961 126.3 0.1 313 4.9
2010-09-23 07:11:51 51°13.662 2°55.961 126.3 0.1 311 5
2010-09-23 07:11:56 51°13.662 2°55.961 126.3 0.1 315 4.9
2010-09-23 07:12:01 51°13.662 2°55.961 126.3 -999 93 4.9
2010-09-23 07:12:06 51°13.662 2°55.961 126.3 -999 71 4.9
2010-09-23 07:12:11 51°13.662 2°55.961 126.3 -999 147 4.9
2010-09-23 07:12:16 51°13.662 2°55.961 126.3 -999 124 5
2010-09-23 07:12:21 51°13.662 2°55.961 126.3 -999 349 4.9
2010-09-23 07:12:26 51°13.662 2°55.961 126.3 0.1 344 4.9
2010-09-23 07:12:31 51°13.662 2°55.961 126.3 -999 286 4.9
2010-09-23 07:12:36 51°13.662 2°55.961 126.3 -999 318 4.9
2010-09-23 07:12:41 51°13.662 2°55.961 126.3 -999 51 4.9
2010-09-23 07:12:46 51°13.662 2°55.961 126.3 0.1 81 4.9
2010-09-23 07:12:51 51°13.662 2°55.961 126.3 0.1 133 4.9
2010-09-23 07:12:56 51°13.662 2°55.961 126.3 -999 167 5
2010-09-23 07:13:01 51°13.662 2°55.961 126.3 -999 335 5
2010-09-23 07:13:06 51°13.662 2°55.961 126.3 0.1 315 4.9
2010-09-23 07:13:10 51°13.662 2°55.961 126.3 -999 198 5
2010-09-23 07:13:16 51°13.662 2°55.961 126.3 -999 90 4.9
2010-09-23 07:13:21 51°13.662 2°55.961 126.3 -999 180 4.9
2010-09-23 07:13:26 51°13.662 2°55.961 126.4 -999 308 5
2010-09-23 07:13:31 51°13.662 2°55.961 126.7 -999 255 4.9
2010-09-23 07:13:36 51°13.662 2°55.961 127.1 0.1 217 4.9
2010-09-23 07:13:41 51°13.662 2°55.961 127.6 -999 166 4.8
2010-09-23 07:13:46 51°13.662 2°55.961 128.1 0.1 117 4.8
2010-09-23 07:13:50 51°13.662 2°55.961 128.4 -999 175 4.8
2010-09-23 07:13:56 51°13.662 2°55.961 128.4 0.1 357 4.9
2010-09-23 07:14:01 51°13.662 2°55.961 128.3 0.1 347 4.9
2010-09-23 07:14:06 51°13.662 2°55.961 127.5 0.1 358 4.9
2010-09-23 07:14:10 51°13.662 2°55.961 126.6 -999 304 4.9
2010-09-23 07:14:16 51°13.662 2°55.961 125.7 -999 318 4.9
2010-09-23 07:14:21 51°13.662 2°55.961 125.2 0.1 239 4.9
2010-09-23 07:14:26 51°13.662 2°55.961 124.5 0.1 269 4.9
2010-09-23 07:14:30 51°13.662 2°55.961 124 0.1 302 4.9
2010-09-23 07:14:36 51°13.662 2°55.961 123.5 0.1 293 4.9
2010-09-23 07:14:41 51°13.662 2°55.961 123.2 -999 256 4.9
2010-09-23 07:14:46 51°13.662 2°55.961 122.7 0.1 139 4.9
2010-09-23 07:14:51 51°13.662 2°55.961 122 0.1 192 4.9
2010-09-23 07:14:56 51°13.662 2°55.961 121.5 -999 289 4.9
2010-09-23 07:15:01 51°13.662 2°55.961 120.9 0.1 177 4.9
2010-09-23 07:15:06 51°13.662 2°55.961 120.2 -999 198 4.9
2010-09-23 07:15:11 51°13.661 2°55.961 119.8 0.1 198 5
2010-09-23 07:15:16 51°13.661 2°55.961 118.9 0.1 269 5
2010-09-23 07:15:21 51°13.661 2°55.961 118.2 0.1 229 4.9
2010-09-23 07:15:26 51°13.661 2°55.961 117.6 0.1 213 4.9
2010-09-23 07:15:30 51°13.661 2°55.961 117 0.1 150 4.9
2010-09-23 07:15:36 51°13.661 2°55.961 116.2 0.1 175 4.9
2010-09-23 07:15:41 51°13.661 2°55.961 115.4 0.1 194 5
2010-09-23 07:15:46 51°13.661 2°55.961 114.6 0.1 229 4.9
2010-09-23 07:15:51 51°13.661 2°55.961 114 0.1 192 4.9
2010-09-23 07:15:56 51°13.661 2°55.961 113.3 -999 233 5
2010-09-23 07:16:01 51°13.661 2°55.96 112.5 0.1 318 4.9
2010-09-23 07:16:06 51°13.661 2°55.96 112.1 0.3 297 4.9
2010-09-23 07:16:11 51°13.661 2°55.959 112 0.4 297 4.9
2010-09-23 07:16:16 51°13.662 2°55.958 111.9 0.6 294 5
2010-09-23 07:16:21 51°13.662 2°55.956 111.9 0.9 295 5
2010-09-23 07:16:26 51°13.663 2°55.953 111.9 1.2 297 5
2010-09-23 07:16:30 51°13.664 2°55.951 112 1.5 297 5.1
2010-09-23 07:16:36 51°13.665 2°55.947 112.1 1.7 297 4.9
2010-09-23 07:16:42 51°13.666 2°55.943 112.2 2 296 -999
2010-09-23 07:16:47 51°13.668 2°55.938 112.2 2.1 295 -999
2010-09-23 07:16:53 51°13.669 2°55.933 112.1 2.3 295 -999
2010-09-23 07:16:59 51°13.671 2°55.927 111.9 2.4 295 -999
2010-09-23 07:17:04 51°13.672 2°55.922 111.8 2.6 294 -999
2010-09-23 07:17:10 51°13.674 2°55.915 111.4 2.8 294 -999
2010-09-23 07:17:15 51°13.676 2°55.909 110.7 2.9 293 -999
2010-09-23 07:17:20 51°13.678 2°55.902 109.7 3 293 -999
2010-09-23 07:17:25 51°13.679 2°55.896 108.5 3.2 291 -999
2010-09-23 07:17:30 51°13.681 2°55.889 107 3.3 290 -999
2010-09-23 07:17:34 51°13.682 2°55.883 105.5 3.4 288 -999
2010-09-23 07:17:40 51°13.684 2°55.874 103.4 3.5 287 -999
2010-09-23 07:17:45 51°13.685 2°55.866 102.2 3.6 285 -999
2010-09-23 07:17:50 51°13.686 2°55.858 101 3.7 284 -999
2010-09-23 07:17:54 51°13.687 2°55.852 99.9 3.7 283 -999
2010-09-23 07:18:00 51°13.689 2°55.842 98.8 3.7 282 -999
2010-09-23 07:18:05 51°13.69 2°55.834 98 3.7 281 -999
2010-09-23 07:18:10 51°13.69 2°55.827 97 3.6 281 -999
2010-09-23 07:18:14 51°13.691 2°55.82 96 3.5 280 -999
2010-09-23 07:18:20 51°13.692 2°55.812 95.3 3.4 280 -999
2010-09-23 07:18:25 51°13.693 2°55.804 94.3 3.4 279 -999
2010-09-23 07:18:30 51°13.694 2°55.797 93.2 3.3 279 -999
2010-09-23 07:18:34 51°13.694 2°55.791 92.6 3.2 278 11.5
2010-09-23 07:18:39 51°13.695 2°55.784 92 3 278 11.6
2010-09-23 07:18:44 51°13.695 2°55.779 91.1 2.8 277 11.9
2010-09-23 07:18:49 51°13.696 2°55.773 90 2.5 277 12.1
2010-09-23 07:18:54 51°13.696 2°55.77 88 1.9 279 12.2
2010-09-23 07:18:58 51°13.696 2°55.768 85.6 1.3 283 12.5
2010-09-23 07:19:03 51°13.696 2°55.766 82 1 287 12.5
2010-09-23 07:19:08 51°13.697 2°55.764 77.3 0.7 292 12.7
2010-09-23 07:19:13 51°13.697 2°55.763 72.9 0.5 311 12.9
2010-09-23 07:19:18 51°13.698 2°55.763 68.5 0.5 332 12.9
2010-09-23 07:19:23 51°13.7 2°55.762 64.1 0.5 354 12.8
2010-09-23 07:19:28 51°13.701 2°55.763 59.5 0.5 13 12.8
2010-09-23 07:19:33 51°13.702 2°55.763 53.6 0.6 355 13
2010-09-23 07:19:38 51°13.702 2°55.763 49.4 0.4 333 13.1
2010-09-23 07:19:42 51°13.701 2°55.763 46.8 0.5 277 13
2010-09-23 07:19:47 51°13.7 2°55.761 43.2 0.8 249 12.9
2010-09-23 07:19:52 51°13.699 2°55.759 39.8 1.2 237 12.8
2010-09-23 07:19:57 51°13.698 2°55.757 36.8 1.5 231 12.7
2010-09-23 07:20:02 51°13.696 2°55.754 34.2 1.6 228 12.3
2010-09-23 07:20:06 51°13.695 2°55.752 31.7 1.5 225 12.2
2010-09-23 07:20:12 51°13.693 2°55.75 29.8 1.5 217 -999
2010-09-23 07:20:18 51°13.691 2°55.748 27.5 1.1 220 -999
2010-09-23 07:20:23 51°13.691 2°55.747 25.2 0.6 234 11.8
2010-09-23 07:20:28 51°13.691 2°55.746 22.6 0.3 299 11.9
2010-09-23 07:20:33 51°13.692 2°55.745 17.9 0.8 343 12
2010-09-23 07:20:38 51°13.694 2°55.745 12.3 1.1 345 12
2010-09-23 07:20:43 51°13.696 2°55.744 6 1.4 346 -999
2010-09-23 07:20:48 51°13.698 2°55.742 359.4 1.8 339 4.6
2010-09-23 07:20:53 51°13.701 2°55.741 352.6 2.3 340 12.1
2010-09-23 07:20:59 51°13.705 2°55.738 347.2 2.7 334 11.7
2010-09-23 07:21:02 51°13.707 2°55.736 340.3 3.2 332 11.7
2010-09-23 07:21:08 51°13.713 2°55.731 335.5 3.7 330 11.3
2010-09-23 07:21:13 51°13.718 2°55.726 333 4.3 329 11.3
2010-09-23 07:21:19 51°13.725 2°55.72 331.9 4.7 330 11.3
2010-09-23 07:21:22 51°13.728 2°55.716 331.8 5.1 329 11.4
2010-09-23 07:21:28 51°13.737 2°55.709 331.8 5.7 330 11.3
2010-09-23 07:21:33 51°13.744 2°55.701 331.8 6.3 330 11.2
2010-09-23 07:21:38 51°13.752 2°55.694 331.8 6.7 330 11
2010-09-23 07:21:43 51°13.761 2°55.686 331.9 7 330 10.6
2010-09-23 07:21:47 51°13.768 2°55.68 332.5 7.3 333 10.6
2010-09-23 07:21:52 51°13.777 2°55.672 333.2 7.7 331 10.5
2010-09-23 07:21:58 51°13.789 2°55.662 333.3 8 333 10.4
2010-09-23 07:22:03 51°13.799 2°55.654 333.7 8.1 333 10.4
2010-09-23 07:22:07 51°13.808 2°55.648 334.5 8.3 334 10.6
2010-09-23 07:22:12 51°13.818 2°55.639 335 8.5 334 10.5
2010-09-23 07:22:16 51°13.827 2°55.633 335.6 8.6 336 10.4
2010-09-23 07:22:22 51°13.841 2°55.623 336.2 8.8 335 10.1
2010-09-23 07:22:27 51°13.852 2°55.615 336.4 8.9 335 10
2010-09-23 07:22:31 51°13.861 2°55.608 336.1 9 335 9.8
2010-09-23 07:22:36 51°13.872 2°55.6 336.7 9.1 336 9.6
2010-09-23 07:22:41 51°13.884 2°55.592 337 9.2 336 9.5
2010-09-23 07:22:46 51°13.896 2°55.583 337.2 9.3 336 9.9
2010-09-23 07:22:51 51°13.908 2°55.575 337.2 9.4 336 9.7
2010-09-23 07:22:55 51°13.918 2°55.568 337 9.5 336 9.8
2010-09-23 07:23:01 51°13.932 2°55.558 336.9 9.5 336 10
2010-09-23 07:23:06 51°13.944 2°55.549 337.1 9.6 335 9.8
2010-09-23 07:23:11 51°13.956 2°55.54 336.7 9.6 335 9.7
2010-09-23 07:23:15 51°13.966 2°55.533 336.4 9.6 336 9.8
2010-09-23 07:23:21 51°13.981 2°55.522 336.5 9.7 336 9.7
2010-09-23 07:23:26 51°13.993 2°55.513 336.5 9.8 335 9.6
2010-09-23 07:23:31 51°14.005 2°55.505 336.4 9.7 336 9.6
2010-09-23 07:23:35 51°14.015 2°55.497 336.2 9.6 335 9.4
2010-09-23 07:23:41 51°14.029 2°55.487 336.1 9.7 336 9.3
2010-09-23 07:23:46 51°14.042 2°55.478 336.5 9.6 336 9.3
2010-09-23 07:23:51 51°14.054 2°55.469 336.7 9.7 335 9.5
2010-09-23 07:23:56 51°14.066 2°55.46 336.6 9.7 335 9.5
2010-09-23 07:24:01 51°14.078 2°55.451 336.6 9.7 335 9.5
2010-09-23 07:24:06 51°14.09 2°55.442 336.5 9.8 334 9.5
2010-09-23 07:24:11 51°14.103 2°55.432 336 9.8 334 9.5
2010-09-23 07:24:15 51°14.113 2°55.424 335.4 9.9 334 9.6
2010-09-23 07:24:21 51°14.128 2°55.412 335.1 10.1 334 9.6
2010-09-23 07:24:26 51°14.14 2°55.403 335 10.1 333 9.5
2010-09-23 07:24:31 51°14.153 2°55.392 334.2 10.2 332 9.6
2010-09-23 07:24:35 51°14.163 2°55.383 333.5 10.2 332 -999
2010-09-23 07:24:41 51°14.178 2°55.371 333.3 10.2 332 9.7
2010-09-23 07:24:46 51°14.19 2°55.36 333.6 10.2 332 9.6
2010-09-23 07:24:51 51°14.203 2°55.35 333.6 10.3 332 9.7
2010-09-23 07:24:55 51°14.213 2°55.341 332.9 10.4 331 9.7
2010-09-23 07:25:01 51°14.228 2°55.328 332.5 10.5 331 9.6
2010-09-23 07:25:06 51°14.241 2°55.316 332.3 10.6 331 9.7
2010-09-23 07:25:11 51°14.254 2°55.305 332.2 10.6 331 9.5
2010-09-23 07:25:15 51°14.264 2°55.295 331.1 10.7 329 9.5
2010-09-23 07:25:21 51°14.28 2°55.281 330.2 10.8 329 9.5
2010-09-23 07:25:26 51°14.292 2°55.268 330.2 10.9 328 9.6
2010-09-23 07:25:31 51°14.305 2°55.255 329.6 11 328 9.2
2010-09-23 07:25:35 51°14.316 2°55.245 329.1 11.1 328 9.6
2010-09-23 07:25:41 51°14.333 2°55.228 328.8 11.3 327 9.2
2010-09-23 07:25:46 51°14.346 2°55.213 328.8 11.4 328 9.1
2010-09-23 07:25:51 51°14.359 2°55.199 328.8 11.6 327 9.2
2010-09-23 07:25:55 51°14.37 2°55.187 328.8 11.7 327 9
2010-09-23 07:26:01 51°14.386 2°55.17 327.7 11.9 326 9
2010-09-23 07:26:06 51°14.4 2°55.156 327.4 12 326 8.9
2010-09-23 07:26:11 51°14.415 2°55.142 327.4 12.1 326 9.3
2010-09-23 07:26:15 51°14.426 2°55.13 327.5 12.2 327 9.1
2010-09-23 07:26:20 51°14.44 2°55.114 327.6 12.3 325 9.4
2010-09-23 07:26:26 51°14.457 2°55.096 327.2 12.4 327 9.5
2010-09-23 07:26:31 51°14.472 2°55.081 327.6 12.6 326 9.7
2010-09-23 07:26:35 51°14.484 2°55.068 327.6 12.7 326 9.6
2010-09-23 07:26:41 51°14.501 2°55.049 327.4 12.9 325 9.8
2010-09-23 07:26:46 51°14.516 2°55.032 326.8 12.9 324 9.8
2010-09-23 07:26:51 51°14.53 2°55.014 325.8 13.1 322 10.2
2010-09-23 07:26:55 51°14.541 2°54.999 324.6 13.2 319 10.1
2010-09-23 07:27:01 51°14.558 2°54.975 323.8 13.3 318 10.2
2010-09-23 07:27:06 51°14.572 2°54.957 323.4 13.3 320 10.3
2010-09-23 07:27:11 51°14.586 2°54.939 325.7 13.3 322 10.3
2010-09-23 07:27:15 51°14.598 2°54.924 327.4 13.3 324 10.1
2010-09-23 07:27:20 51°14.613 2°54.907 328.8 13.3 324 10.2
2010-09-23 07:27:26 51°14.631 2°54.887 330.1 13.2 327 10.3
2010-09-23 07:27:31 51°14.646 2°54.871 331.4 13.3 326 10.1
2010-09-23 07:27:35 51°14.659 2°54.859 331.9 13.3 327 10.2
2010-09-23 07:27:40 51°14.674 2°54.843 331.8 13.3 326 10.3
2010-09-23 07:27:46 51°14.693 2°54.823 331.4 13.3 326 10.3
2010-09-23 07:27:51 51°14.708 2°54.807 331 13.3 325 10.2
2010-09-23 07:27:55 51°14.72 2°54.794 330.5 13.3 325 10.4
2010-09-23 07:28:01 51°14.738 2°54.773 329.9 13.3 324 10.4
2010-09-23 07:28:06 51°14.753 2°54.756 329.5 13.3 324 10.4
2010-09-23 07:28:11 51°14.768 2°54.738 328.7 13.3 324 10.4
2010-09-23 07:28:15 51°14.779 2°54.725 328.6 13.3 324 10.4
2010-09-23 07:28:21 51°14.797 2°54.704 328.2 13.2 324 10.4
2010-09-23 07:28:26 51°14.812 2°54.686 328.2 13.3 323 10.4
2010-09-23 07:28:31 51°14.826 2°54.669 328.3 13.2 324 10.5
2010-09-23 07:28:36 51°14.841 2°54.651 328.3 13.3 324 10.4
2010-09-23 07:28:41 51°14.856 2°54.634 328.3 13.3 323 10.5
2010-09-23 07:28:46 51°14.87 2°54.616 327.7 13.3 323 10.7
2010-09-23 07:28:51 51°14.885 2°54.598 327.3 13.3 322 10.7
2010-09-23 07:28:55 51°14.897 2°54.584 326.7 13.3 322 10.7
2010-09-23 07:29:01 51°14.914 2°54.562 326.6 13.4 322 10.2
2010-09-23 07:29:06 51°14.929 2°54.544 326.3 13.2 322 9.1
2010-09-23 07:29:11 51°14.943 2°54.526 326.4 13.1 322 8.9
2010-09-23 07:29:15 51°14.954 2°54.512 326.6 12.9 322 8.8
2010-09-23 07:29:20 51°14.968 2°54.495 326.9 12.9 322 8.9
2010-09-23 07:29:26 51°14.986 2°54.474 327 12.9 323 9
2010-09-23 07:29:31 51°15 2°54.456 327 13.1 322 9
2010-09-23 07:29:35 51°15.011 2°54.442 326.8 13.1 323 8.9
2010-09-23 07:29:41 51°15.029 2°54.421 327 13.1 323 9
2010-09-23 07:29:46 51°15.043 2°54.403 327.3 13 323 9.1
2010-09-23 07:29:51 51°15.057 2°54.386 327.6 13 323 9
2010-09-23 07:29:55 51°15.069 2°54.372 327.6 13 323 9
2010-09-23 07:30:01 51°15.086 2°54.351 327.6 13.1 322 9.1
2010-09-23 07:30:06 51°15.1 2°54.333 327.5 13.1 322 9
2010-09-23 07:30:11 51°15.115 2°54.316 327.4 13.1 323 9.1
2010-09-23 07:30:15 51°15.127 2°54.302 327.6 13.2 322 9.1
2010-09-23 07:30:21 51°15.144 2°54.28 327.3 13.1 322 9.1
2010-09-23 07:30:26 51°15.158 2°54.262 327 13.1 322 9.1
2010-09-23 07:30:31 51°15.173 2°54.244 326.7 13.2 321 9.2
2010-09-23 07:30:36 51°15.187 2°54.226 326.2 13.2 321 9.2
2010-09-23 07:30:41 51°15.201 2°54.207 326 13.2 321 9.3
2010-09-23 07:30:46 51°15.216 2°54.189 326.5 13.2 322 9.3
2010-09-23 07:30:51 51°15.23 2°54.171 327.2 13.2 322 9.3
2010-09-23 07:30:55 51°15.242 2°54.158 328.1 13.2 324 9.4
2010-09-23 07:31:01 51°15.259 2°54.137 328.7 13.2 323 9.4
2010-09-23 07:31:06 51°15.274 2°54.12 328.7 13.2 324 9.5
2010-09-23 07:31:11 51°15.289 2°54.102 329.3 13.2 323 9.5
2010-09-23 07:31:15 51°15.301 2°54.089 329.3 13.2 325 9.4
2010-09-23 07:31:21 51°15.319 2°54.068 329.6 13.2 324 9.6
2010-09-23 07:31:26 51°15.334 2°54.051 329.9 13.2 325 9.5
2010-09-23 07:31:31 51°15.349 2°54.034 330.1 13.2 324 9.5
2010-09-23 07:31:35 51°15.36 2°54.02 329.9 13.2 324 9.6
2010-09-23 07:31:40 51°15.375 2°54.003 329.6 13.2 323 9.6
2010-09-23 07:31:46 51°15.393 2°53.982 329 13.3 322 9.7
2010-09-23 07:31:51 51°15.407 2°53.964 328.4 13.3 322 9.7
2010-09-23 07:31:55 51°15.419 2°53.949 327.8 13.3 321 9.8
2010-09-23 07:32:01 51°15.436 2°53.927 327.2 13.3 321 9.8
2010-09-23 07:32:05 51°15.447 2°53.912 327 13.3 321 9.8
2010-09-23 07:32:11 51°15.465 2°53.889 326.9 13.3 321 9.8
2010-09-23 07:32:15 51°15.476 2°53.874 327.3 13.3 322 9.9
2010-09-23 07:32:21 51°15.493 2°53.853 327.7 13.3 322 9.9
2010-09-23 07:32:26 51°15.508 2°53.835 328 13.3 323 10
2010-09-23 07:32:31 51°15.523 2°53.817 328.3 13.3 322 10
2010-09-23 07:32:35 51°15.534 2°53.802 328.3 13.4 322 10
2010-09-23 07:32:41 51°15.552 2°53.781 328.4 13.4 322 10.2
2010-09-23 07:32:46 51°15.567 2°53.763 328.5 13.3 322 10.1
2010-09-23 07:32:51 51°15.581 2°53.745 328.6 13.3 322 10.1
2010-09-23 07:32:55 51°15.593 2°53.73 328.7 13.4 322 10.2
2010-09-23 07:33:01 51°15.611 2°53.709 328.7 13.4 322 10.2
2010-09-23 07:33:06 51°15.626 2°53.691 328.7 13.4 323 10.3
2010-09-23 07:33:11 51°15.64 2°53.673 329.1 13.4 323 10.3
2010-09-23 07:33:15 51°15.652 2°53.659 329.3 13.4 323 10.4
2010-09-23 07:33:21 51°15.67 2°53.638 329.5 13.4 323 10.3
2010-09-23 07:33:26 51°15.685 2°53.62 329.6 13.4 323 10.3
2010-09-23 07:33:31 51°15.7 2°53.602 329.6 13.4 323 10.5
2010-09-23 07:33:35 51°15.711 2°53.588 329.5 13.4 323 10.4
2010-09-23 07:33:41 51°15.729 2°53.566 329.5 13.4 323 10.5
2010-09-23 07:33:46 51°15.744 2°53.549 329.6 13.4 323 10.5
2010-09-23 07:33:51 51°15.759 2°53.531 329.7 13.3 324 10.6
2010-09-23 07:33:55 51°15.771 2°53.517 330.4 13.3 324 10.5
2010-09-23 07:34:01 51°15.789 2°53.497 330.9 13.3 325 10.6
2010-09-23 07:34:06 51°15.804 2°53.48 331.3 13.3 325 10.7
2010-09-23 07:34:11 51°15.819 2°53.463 331.4 13.3 325 10.7
2010-09-23 07:34:15 51°15.831 2°53.449 331.6 13.3 325 10.7
2010-09-23 07:34:21 51°15.849 2°53.429 331.8 13.3 326 10.7
2010-09-23 07:34:26 51°15.865 2°53.413 332.4 13.2 327 10.7
2010-09-23 07:34:31 51°15.88 2°53.397 333.1 13.2 327 10.7
2010-09-23 07:34:35 51°15.893 2°53.385 333.6 13.2 328 10.6
2010-09-23 07:34:41 51°15.911 2°53.367 333.9 13.2 327 10.6
2010-09-23 07:34:46 51°15.927 2°53.351 333.9 13.2 327 10.8
2010-09-23 07:34:51 51°15.942 2°53.335 333.7 13.2 326 10.7
2010-09-23 07:34:55 51°15.954 2°53.321 333.4 13.2 326 10.7
2010-09-23 07:35:01 51°15.972 2°53.302 333.2 13.2 326 10.8
2010-09-23 07:35:06 51°15.987 2°53.285 333 13.2 326 10.8
2010-09-23 07:35:11 51°16.003 2°53.269 333 13.2 326 10.8
2010-09-23 07:35:15 51°16.015 2°53.256 333.3 13.2 327 10.8
2010-09-23 07:35:21 51°16.033 2°53.237 333.6 13.2 327 10.9
2010-09-23 07:35:26 51°16.048 2°53.221 333.6 13.2 326 11
2010-09-23 07:35:31 51°16.064 2°53.205 333.5 13.2 326 10.9
2010-09-23 07:35:35 51°16.076 2°53.192 333.4 13.2 326 10.9
2010-09-23 07:35:41 51°16.094 2°53.172 333.5 13.1 327 11
2010-09-23 07:35:46 51°16.109 2°53.156 333.6 13.1 327 10.9
2010-09-23 07:35:51 51°16.124 2°53.14 333.6 13.2 326 10.9
2010-09-23 07:35:55 51°16.137 2°53.127 333.6 13.2 326 10.9
2010-09-23 07:36:01 51°16.155 2°53.108 333.3 13.1 326 11
2010-09-23 07:36:06 51°16.17 2°53.091 333.2 13.1 326 10.9
2010-09-23 07:36:11 51°16.185 2°53.075 333.2 13.2 326 11
2010-09-23 07:36:15 51°16.197 2°53.062 333.2 13.2 327 10.9
2010-09-23 07:36:21 51°16.215 2°53.043 333.5 13.1 326 11
2010-09-23 07:36:26 51°16.231 2°53.027 333.4 13.1 327 11
2010-09-23 07:36:31 51°16.246 2°53.012 333.8 13.1 327 11
2010-09-23 07:36:35 51°16.258 2°52.999 333.8 13.1 329 11
2010-09-23 07:36:41 51°16.277 2°52.981 334.1 13.1 328 11
2010-09-23 07:36:46 51°16.293 2°52.967 334.7 13.1 330 11
2010-09-23 07:36:51 51°16.308 2°52.952 335.3 13.1 330 11
2010-09-23 07:36:56 51°16.324 2°52.938 335.6 13.1 330 11
2010-09-23 07:37:01 51°16.34 2°52.924 335.6 13.1 330 11
2010-09-23 07:37:06 51°16.356 2°52.909 335.6 13 330 11
2010-09-23 07:37:11 51°16.371 2°52.895 335.6 13 330 11
2010-09-23 07:37:15 51°16.384 2°52.884 335.6 13 330 11.1
2010-09-23 07:37:21 51°16.403 2°52.866 335.6 13 330 11
2010-09-23 07:37:26 51°16.418 2°52.852 335.4 13 330 11
2010-09-23 07:37:31 51°16.434 2°52.838 335.4 13 330 10.9
2010-09-23 07:37:36 51°16.45 2°52.824 335.3 13 331 11
2010-09-23 07:37:41 51°16.465 2°52.81 335.4 13 330 10.9
2010-09-23 07:37:46 51°16.481 2°52.796 335.4 12.9 330 10.8
2010-09-23 07:37:51 51°16.497 2°52.782 335.3 13 330 10.7
2010-09-23 07:37:55 51°16.509 2°52.77 335.1 13 330 10.7
2010-09-23 07:38:01 51°16.528 2°52.753 335.2 13 330 10.7
2010-09-23 07:38:06 51°16.544 2°52.739 335.3 12.9 331 10.7
2010-09-23 07:38:11 51°16.559 2°52.725 335.3 12.9 331 10.7
2010-09-23 07:38:15 51°16.572 2°52.714 335.4 12.9 331 10.6
2010-09-23 07:38:20 51°16.587 2°52.701 336.3 12.9 333 10.5
2010-09-23 07:38:26 51°16.606 2°52.685 337 12.9 333 10.4
2010-09-23 07:38:31 51°16.623 2°52.674 338.3 12.8 337 10.4
2010-09-23 07:38:35 51°16.636 2°52.665 339.9 12.8 336 10.3
2010-09-23 07:38:41 51°16.655 2°52.653 341.5 12.7 339 10.2
2010-09-23 07:38:46 51°16.672 2°52.642 342.6 12.7 339 9.9
2010-09-23 07:38:51 51°16.689 2°52.633 343.7 12.7 340 9.7
2010-09-23 07:38:55 51°16.702 2°52.625 344.6 12.6 340 9.6
2010-09-23 07:39:01 51°16.722 2°52.615 345.4 12.5 342 9.2
2010-09-23 07:39:06 51°16.738 2°52.606 346 12.5 341 9
2010-09-23 07:39:11 51°16.754 2°52.598 346.6 12.4 343 8.9
2010-09-23 07:39:16 51°16.77 2°52.59 347 12.4 342 9
2010-09-23 07:39:21 51°16.787 2°52.582 347.4 12.4 343 9.1
2010-09-23 07:39:26 51°16.803 2°52.574 347.6 12.4 343 9
2010-09-23 07:39:31 51°16.82 2°52.566 347.7 12.5 343 8.9
2010-09-23 07:39:35 51°16.833 2°52.559 347.7 12.5 343 8.9
2010-09-23 07:39:41 51°16.853 2°52.549 347.6 12.5 342 8.9
2010-09-23 07:39:46 51°16.869 2°52.54 347.2 12.4 342 8.9
2010-09-23 07:39:51 51°16.885 2°52.532 346.8 12.4 342 9
2010-09-23 07:39:56 51°16.902 2°52.523 346.8 12.4 342 8.9
2010-09-23 07:40:01 51°16.918 2°52.514 346.9 12.5 342 8.9
2010-09-23 07:40:06 51°16.935 2°52.505 346.9 12.5 341 8.8
2010-09-23 07:40:11 51°16.951 2°52.497 347 12.4 343 8.7
2010-09-23 07:40:15 51°16.964 2°52.49 347.3 12.5 342 8.7
2010-09-23 07:40:21 51°16.984 2°52.481 347.3 12.4 343 8.7
2010-09-23 07:40:26 51°17 2°52.472 347.5 12.4 342 8.8
2010-09-23 07:40:31 51°17.017 2°52.464 347.5 12.4 342 8.7
2010-09-23 07:40:35 51°17.03 2°52.457 347.2 12.5 342 8.8
2010-09-23 07:40:41 51°17.05 2°52.446 347 12.5 342 8.9
2010-09-23 07:40:46 51°17.066 2°52.437 347 12.5 342 9
2010-09-23 07:40:51 51°17.083 2°52.429 347 12.5 342 8.9
2010-09-23 07:40:55 51°17.096 2°52.422 347 12.6 341 9
2010-09-23 07:41:01 51°17.116 2°52.412 346.8 12.5 341 9
2010-09-23 07:41:06 51°17.132 2°52.403 346.8 12.6 342 9.1
2010-09-23 07:41:11 51°17.149 2°52.394 347 12.6 342 9.1
2010-09-23 07:41:15 51°17.162 2°52.387 347 12.6 342 9.2
2010-09-23 07:41:21 51°17.182 2°52.376 347 12.6 341 9.3
2010-09-23 07:41:26 51°17.198 2°52.368 347 12.6 342 9.3
2010-09-23 07:41:31 51°17.215 2°52.358 347 12.6 341 9.3
2010-09-23 07:41:35 51°17.228 2°52.351 346.9 12.6 341 9.4
2010-09-23 07:41:41 51°17.248 2°52.341 347 12.6 342 9.2
2010-09-23 07:41:46 51°17.265 2°52.332 346.7 12.6 341 9.5
2010-09-23 07:41:51 51°17.281 2°52.322 346.6 12.6 341 9.5
2010-09-23 07:41:55 51°17.294 2°52.315 346.3 12.6 340 9.5
2010-09-23 07:42:01 51°17.314 2°52.304 346 12.7 340 9.5
2010-09-23 07:42:06 51°17.331 2°52.295 345.9 12.7 341 9.6
2010-09-23 07:42:11 51°17.347 2°52.286 346.1 12.6 341 9.5
2010-09-23 07:42:15 51°17.361 2°52.279 346.3 12.6 341 9.7
2010-09-23 07:42:21 51°17.381 2°52.268 346.5 12.6 341 9.8
2010-09-23 07:42:26 51°17.397 2°52.259 346.5 12.7 341 10
2010-09-23 07:42:31 51°17.414 2°52.25 346.6 12.6 342 10.1
2010-09-23 07:42:35 51°17.427 2°52.243 346.6 12.7 341 10.2
2010-09-23 07:42:41 51°17.447 2°52.232 346.6 12.6 342 10.3
2010-09-23 07:42:46 51°17.464 2°52.223 346.6 12.6 341 10.4
2010-09-23 07:42:51 51°17.48 2°52.215 346.8 12.6 342 10.5
2010-09-23 07:42:55 51°17.494 2°52.207 346.9 12.6 342 10.5
2010-09-23 07:43:01 51°17.514 2°52.197 347 12.6 342 10.4
2010-09-23 07:43:06 51°17.53 2°52.188 346.8 12.6 341 10.5
2010-09-23 07:43:11 51°17.547 2°52.179 346.8 12.6 342 10.5
2010-09-23 07:43:15 51°17.56 2°52.172 346.7 12.6 341 10.4
2010-09-23 07:43:21 51°17.58 2°52.161 346.7 12.6 341 10.4
2010-09-23 07:43:26 51°17.596 2°52.152 346.7 12.6 341 10.4
2010-09-23 07:43:31 51°17.613 2°52.144 347 12.6 342 10.4
2010-09-23 07:43:35 51°17.626 2°52.136 346.9 12.5 341 10.4
2010-09-23 07:43:41 51°17.646 2°52.126 346.8 12.5 341 10.4
2010-09-23 07:43:46 51°17.662 2°52.117 346.6 12.5 341 10.4
2010-09-23 07:43:51 51°17.678 2°52.107 346.4 12.5 341 10.4
2010-09-23 07:43:55 51°17.691 2°52.1 346.3 12.5 340 10.4
2010-09-23 07:44:01 51°17.711 2°52.089 346.3 12.5 341 10.3
2010-09-23 07:44:06 51°17.727 2°52.08 346.4 12.5 341 10.2
2010-09-23 07:44:11 51°17.744 2°52.071 346.5 12.5 341 10.2
2010-09-23 07:44:15 51°17.757 2°52.064 346.6 12.5 341 10.1
2010-09-23 07:44:21 51°17.777 2°52.053 346.6 12.5 341 10
2010-09-23 07:44:26 51°17.793 2°52.044 346.6 12.5 341 10.1
2010-09-23 07:44:31 51°17.809 2°52.035 346.5 12.5 341 10.2
2010-09-23 07:44:35 51°17.822 2°52.028 346.5 12.5 341 10.1
2010-09-23 07:44:41 51°17.842 2°52.017 346.4 12.5 340 9.8
2010-09-23 07:44:46 51°17.859 2°52.007 346.4 12.6 339 9.7
2010-09-23 07:44:51 51°17.875 2°51.997 346.1 12.6 339 9.6
2010-09-23 07:44:55 51°17.888 2°51.989 345.9 12.6 338 9.6
2010-09-23 07:45:01 51°17.907 2°51.977 345.7 12.6 339 9.5
2010-09-23 07:45:06 51°17.923 2°51.967 346 12.6 338 9.5
2010-09-23 07:45:11 51°17.94 2°51.956 345.7 12.7 338 9.5
2010-09-23 07:45:15 51°17.953 2°51.948 346.2 12.7 339 9.5
2010-09-23 07:45:21 51°17.972 2°51.936 346.3 12.7 339 9.6
2010-09-23 07:45:26 51°17.989 2°51.927 346.7 12.7 339 9.6
2010-09-23 07:45:31 51°18.006 2°51.917 346.8 12.7 340 9.7
2010-09-23 07:45:35 51°18.019 2°51.909 347.1 12.7 339 9.7
2010-09-23 07:45:41 51°18.039 2°51.897 347 12.7 339 9.7
2010-09-23 07:45:46 51°18.055 2°51.887 347 12.7 339 9.8
2010-09-23 07:45:51 51°18.072 2°51.877 346.7 12.8 339 9.8
2010-09-23 07:45:56 51°18.088 2°51.866 346.7 12.8 339 9.8
2010-09-23 07:46:01 51°18.105 2°51.856 346.3 12.8 339 9.9
2010-09-23 07:46:06 51°18.121 2°51.845 346.3 12.8 338 10
2010-09-23 07:46:11 51°18.138 2°51.835 346.3 12.8 338 10.2
2010-09-23 07:46:15 51°18.151 2°51.826 346.1 12.8 338 10.1
2010-09-23 07:46:21 51°18.171 2°51.814 346.1 12.8 338 10.2
2010-09-23 07:46:26 51°18.187 2°51.803 346 12.9 338 10.2
2010-09-23 07:46:31 51°18.204 2°51.792 346 12.9 338 10.4
2010-09-23 07:46:36 51°18.22 2°51.782 345.9 12.9 338 10.4
2010-09-23 07:46:41 51°18.237 2°51.771 346.2 12.9 338 10.5
2010-09-23 07:46:46 51°18.254 2°51.761 346.2 12.9 338 10.6
2010-09-23 07:46:51 51°18.27 2°51.75 346.2 12.9 338 10.7
2010-09-23 07:46:55 51°18.284 2°51.741 346.2 12.9 338 10.8
2010-09-23 07:47:01 51°18.303 2°51.728 346.3 12.9 338 10.9
2010-09-23 07:47:06 51°18.32 2°51.717 346.3 13 338 10.9
2010-09-23 07:47:11 51°18.337 2°51.707 346.5 13 338 11
2010-09-23 07:47:15 51°18.35 2°51.698 346.6 13 338 11.1
2010-09-23 07:47:21 51°18.37 2°51.685 346.6 12.9 338 11.2
2010-09-23 07:47:26 51°18.387 2°51.674 346.5 13 338 11.3
2010-09-23 07:47:31 51°18.403 2°51.663 346.4 12.9 338 11.4
2010-09-23 07:47:35 51°18.417 2°51.655 346.4 13 337 11.4
2010-09-23 07:47:41 51°18.437 2°51.641 346.5 13 338 11.6
2010-09-23 07:47:46 51°18.454 2°51.63 346.5 13 337 11.8
2010-09-23 07:47:51 51°18.47 2°51.62 346.4 13 338 11.8
2010-09-23 07:47:55 51°18.484 2°51.611 346.7 13 338 11.9
2010-09-23 07:48:01 51°18.504 2°51.598 346.7 13 338 12
2010-09-23 07:48:06 51°18.52 2°51.587 346.6 13 338 12.1
2010-09-23 07:48:11 51°18.537 2°51.576 346.9 13 338 12.3
2010-09-23 07:48:16 51°18.553 2°51.564 347 13 337 12.4
2010-09-23 07:48:21 51°18.57 2°51.554 346.7 13 338 12.4
2010-09-23 07:48:26 51°18.587 2°51.543 346.7 13 337 12.6
2010-09-23 07:48:31 51°18.603 2°51.532 346.7 13 338 12.7
2010-09-23 07:48:35 51°18.617 2°51.523 346.7 13 337 12.6
2010-09-23 07:48:41 51°18.637 2°51.51 346.7 13 337 12.9
2010-09-23 07:48:46 51°18.654 2°51.498 346.8 13 337 12.9
2010-09-23 07:48:51 51°18.67 2°51.488 346.7 13 337 13
2010-09-23 07:48:56 51°18.687 2°51.476 346.7 13 337 13.1
2010-09-23 07:49:01 51°18.703 2°51.465 346.7 13 337 13.2
2010-09-23 07:49:06 51°18.72 2°51.454 346.6 13 337 13.1
2010-09-23 07:49:11 51°18.737 2°51.443 346.4 13 337 13.3
2010-09-23 07:49:15 51°18.75 2°51.434 346.4 13 337 13.4
2010-09-23 07:49:21 51°18.77 2°51.42 346.4 13 337 13.4
2010-09-23 07:49:26 51°18.786 2°51.408 346.4 13 336 13.4
2010-09-23 07:49:31 51°18.803 2°51.397 346.4 13 336 13.6
2010-09-23 07:49:35 51°18.816 2°51.388 346.4 13 336 13.7
2010-09-23 07:49:41 51°18.836 2°51.374 346.5 13 337 13.6
2010-09-23 07:49:46 51°18.852 2°51.362 346.6 13 336 13.7
2010-09-23 07:49:51 51°18.869 2°51.351 346.5 13 337 13.8
2010-09-23 07:49:55 51°18.882 2°51.342 346.5 13 337 13.7
2010-09-23 07:50:01 51°18.902 2°51.328 346.5 13 337 13.9
2010-09-23 07:50:06 51°18.919 2°51.317 346.5 13 337 13.7
2010-09-23 07:50:11 51°18.935 2°51.305 346.7 13 336 13.9
2010-09-23 07:50:15 51°18.948 2°51.296 346.6 13 337 13.9
2010-09-23 07:50:21 51°18.968 2°51.282 346.7 13 337 13.9
2010-09-23 07:50:26 51°18.985 2°51.271 347 13 337 14
2010-09-23 07:50:31 51°19.001 2°51.26 347 13 337 14.2
2010-09-23 07:50:35 51°19.014 2°51.251 347.2 12.9 337 14.1
2010-09-23 07:50:41 51°19.034 2°51.237 347 13 336 14.2
2010-09-23 07:50:46 51°19.051 2°51.225 346.7 13 336 14.1
2010-09-23 07:50:51 51°19.067 2°51.214 346.7 13 337 14.3
2010-09-23 07:50:55 51°19.08 2°51.205 346.6 13 336 14.2
2010-09-23 07:51:01 51°19.1 2°51.191 346.5 13 336 14.3
2010-09-23 07:51:06 51°19.116 2°51.179 346.6 13 336 14.2
2010-09-23 07:51:11 51°19.133 2°51.168 346.8 13 337 14.3
2010-09-23 07:51:16 51°19.15 2°51.157 347 13.1 336 14.4
2010-09-23 07:51:21 51°19.167 2°51.145 346.6 13 337 14.2
2010-09-23 07:51:26 51°19.183 2°51.134 346.6 13 336 14.3
2010-09-23 07:51:31 51°19.2 2°51.122 346.6 13 337 14.4
2010-09-23 07:51:35 51°19.213 2°51.113 346.8 13 336 14.3
2010-09-23 07:51:41 51°19.232 2°51.099 346.8 13 336 14.3
2010-09-23 07:51:46 51°19.249 2°51.088 346.8 13 336 14.1
2010-09-23 07:51:51 51°19.266 2°51.076 346.6 13.1 336 14.2
2010-09-23 07:51:55 51°19.279 2°51.067 346.3 13.1 336 14.2
2010-09-23 07:52:01 51°19.299 2°51.053 346.3 13.1 337 14.2
2010-09-23 07:52:06 51°19.316 2°51.042 346.5 13.1 336 14.2
2010-09-23 07:52:11 51°19.332 2°51.03 346.4 13 337 14.1
2010-09-23 07:52:15 51°19.345 2°51.021 346.6 13 337 14.1
2010-09-23 07:52:21 51°19.365 2°51.007 346.7 13.1 337 14
2010-09-23 07:52:26 51°19.382 2°50.996 346.7 13 337 14
2010-09-23 07:52:31 51°19.398 2°50.984 346.5 13 336 13.8
2010-09-23 07:52:35 51°19.412 2°50.975 346.4 13 337 13.7
2010-09-23 07:52:41 51°19.432 2°50.961 346.4 13 336 13.7
2010-09-23 07:52:46 51°19.448 2°50.95 346.1 13 337 13.6
2010-09-23 07:52:51 51°19.465 2°50.939 346.4 13.1 337 13.5
2010-09-23 07:52:55 51°19.478 2°50.93 346.5 13 337 13.4
2010-09-23 07:53:01 51°19.498 2°50.916 346.5 13.1 337 13.2
2010-09-23 07:53:06 51°19.515 2°50.905 346.5 13 337 13
2010-09-23 07:53:11 51°19.531 2°50.894 346.3 13 337 12.8
2010-09-23 07:53:15 51°19.545 2°50.884 346.3 13 337 12.7
2010-09-23 07:53:21 51°19.564 2°50.871 346.3 13 337 12.5
2010-09-23 07:53:26 51°19.581 2°50.86 346.3 13 337 12.4
2010-09-23 07:53:31 51°19.598 2°50.849 346.3 13 337 12.2
2010-09-23 07:53:35 51°19.611 2°50.84 346.3 13 337 12
2010-09-23 07:53:41 51°19.631 2°50.827 346.3 13 337 11.9
2010-09-23 07:53:46 51°19.647 2°50.816 346.6 13 337 11.9
2010-09-23 07:53:51 51°19.664 2°50.805 346.4 13 337 11.5
2010-09-23 07:53:55 51°19.677 2°50.796 346.3 13 337 11.5
2010-09-23 07:54:01 51°19.697 2°50.783 346.3 12.9 338 11.5
2010-09-23 07:54:06 51°19.714 2°50.772 346.4 12.9 339 11.6
2010-09-23 07:54:11 51°19.73 2°50.761 346.7 12.9 338 11.6
2010-09-23 07:54:15 51°19.743 2°50.753 346.7 12.9 338 11.7
2010-09-23 07:54:21 51°19.763 2°50.74 346.6 12.9 338 11.7
2010-09-23 07:54:26 51°19.78 2°50.729 346.3 12.9 338 11.6
2010-09-23 07:54:31 51°19.797 2°50.719 346.3 12.8 338 11.5
2010-09-23 07:54:35 51°19.81 2°50.71 346.1 12.7 337 11.5
2010-09-23 07:54:41 51°19.829 2°50.697 345.9 12.5 338 11.6
2010-09-23 07:54:46 51°19.845 2°50.687 346.1 12.4 338 11.7
2010-09-23 07:54:51 51°19.861 2°50.676 346.3 12.3 338 11.8
2010-09-23 07:54:55 51°19.873 2°50.668 346.3 12.2 337 11.9
2010-09-23 07:55:01 51°19.892 2°50.656 346.3 12.1 337 12.1
2010-09-23 07:55:06 51°19.907 2°50.646 346.3 12.1 337 12.2
2010-09-23 07:55:11 51°19.922 2°50.635 346.1 12 337 12.6
2010-09-23 07:55:15 51°19.935 2°50.627 346.2 12 337 12.7
2010-09-23 07:55:21 51°19.953 2°50.615 346.2 11.9 337 12.9
2010-09-23 07:55:26 51°19.968 2°50.604 346.2 11.9 336 13.2
2010-09-23 07:55:31 51°19.983 2°50.594 345.8 11.9 337 13.5
2010-09-23 07:55:35 51°19.995 2°50.585 345.8 11.9 337 13.8
2010-09-23 07:55:41 51°20.013 2°50.573 345.9 11.9 337 14
2010-09-23 07:55:46 51°20.028 2°50.564 346.3 11.7 339 14.3
2010-09-23 07:55:51 51°20.044 2°50.555 348.6 11.7 340 14.4
2010-09-23 07:55:55 51°20.056 2°50.548 349.7 11.7 342 14.6
2010-09-23 07:56:01 51°20.074 2°50.54 351.3 11.6 343 14.6
2010-09-23 07:56:06 51°20.09 2°50.532 352.4 11.6 344 14.6
2010-09-23 07:56:11 51°20.105 2°50.525 353.1 11.5 345 14.8
2010-09-23 07:56:15 51°20.118 2°50.52 353.7 11.6 344 14.9
2010-09-23 07:56:21 51°20.136 2°50.512 354.5 11.5 346 14.9
2010-09-23 07:56:26 51°20.152 2°50.506 355.1 11.6 346 15
2010-09-23 07:56:31 51°20.167 2°50.5 355.4 11.5 347 15
2010-09-23 07:56:35 51°20.18 2°50.495 356.1 11.6 346 15
2010-09-23 07:56:41 51°20.198 2°50.488 356.3 11.6 348 15.2
2010-09-23 07:56:46 51°20.214 2°50.482 356.5 11.7 346 15.2
2010-09-23 07:56:51 51°20.23 2°50.476 356.1 11.7 347 15.3
2010-09-23 07:56:55 51°20.243 2°50.472 356.1 11.8 347 15.4
2010-09-23 07:57:01 51°20.262 2°50.465 356.3 11.7 348 15.6
2010-09-23 07:57:06 51°20.277 2°50.459 356.5 11.8 346 15.6
2010-09-23 07:57:11 51°20.293 2°50.453 356.3 11.8 347 15.8
2010-09-23 07:57:15 51°20.306 2°50.448 356.2 11.8 347 16
2010-09-23 07:57:21 51°20.325 2°50.441 356 11.8 347 16.1
2010-09-23 07:57:26 51°20.341 2°50.435 356 11.8 347 16.2
2010-09-23 07:57:31 51°20.357 2°50.429 356.3 11.8 347 16.3
2010-09-23 07:57:35 51°20.37 2°50.425 356.5 11.8 347 16.7
2010-09-23 07:57:41 51°20.389 2°50.418 356.4 11.8 347 16.9
2010-09-23 07:57:46 51°20.405 2°50.412 356.3 11.8 349 16.9
2010-09-23 07:57:51 51°20.421 2°50.408 357.9 11.8 349 17.4
2010-09-23 07:57:55 51°20.434 2°50.404 358.5 11.9 350 17.6
2010-09-23 07:58:01 51°20.454 2°50.399 359.2 11.9 351 17.9
2010-09-23 07:58:06 51°20.47 2°50.395 359.7 11.9 351 18
2010-09-23 07:58:11 51°20.486 2°50.391 0.3 11.9 352 18.1
2010-09-23 07:58:15 51°20.499 2°50.388 0.8 11.8 352 18.3
2010-09-23 07:58:21 51°20.519 2°50.384 1.1 11.9 352 18.5
2010-09-23 07:58:26 51°20.535 2°50.38 1.2 11.9 352 18.7
2010-09-23 07:58:31 51°20.552 2°50.377 1.1 11.9 352 19
2010-09-23 07:58:35 51°20.565 2°50.374 1.1 12 352 19
2010-09-23 07:58:40 51°20.581 2°50.37 1.1 12 353 19.3
2010-09-23 07:58:46 51°20.601 2°50.366 0.9 12 353 19.5
2010-09-23 07:58:51 51°20.617 2°50.364 2.3 11.9 355 19.8
2010-09-23 07:58:55 51°20.631 2°50.361 2.9 12 354 19.9
2010-09-23 07:59:01 51°20.65 2°50.36 4.1 11.9 357 20.1
2010-09-23 07:59:06 51°20.667 2°50.357 4.4 11.9 355 20.2
2010-09-23 07:59:11 51°20.683 2°50.356 5.3 11.9 357 20.5
2010-09-23 07:59:15 51°20.697 2°50.354 5.5 11.9 356 20.6
2010-09-23 07:59:21 51°20.716 2°50.353 6.1 11.9 357 20.8
2010-09-23 07:59:26 51°20.733 2°50.352 6.2 11.9 357 20.9
2010-09-23 07:59:31 51°20.749 2°50.351 6.3 11.9 358 21
2010-09-23 07:59:35 51°20.762 2°50.351 7.4 11.8 -999 21.3
2010-09-23 07:59:41 51°20.782 2°50.351 8.6 11.8 -999 21.5
2010-09-23 07:59:46 51°20.798 2°50.351 8.9 11.8 1 21.5
2010-09-23 07:59:51 51°20.815 2°50.352 10.1 11.8 2 21.8
2010-09-23 07:59:55 51°20.828 2°50.353 10.2 11.8 1 21.8
2010-09-23 08:00:01 51°20.847 2°50.354 10.8 11.8 3 22
2010-09-23 08:00:06 51°20.864 2°50.355 11 11.8 3 22
2010-09-23 08:00:11 51°20.88 2°50.357 11.4 11.8 3 21.9
2010-09-23 08:00:16 51°20.896 2°50.359 12.4 11.7 6 22.2
2010-09-23 08:00:21 51°20.912 2°50.362 13.7 11.7 5 22.3
2010-09-23 08:00:26 51°20.928 2°50.365 14.6 11.6 7 22.4
2010-09-23 08:00:31 51°20.944 2°50.368 15.3 11.6 8 22.6
2010-09-23 08:00:35 51°20.957 2°50.371 15.8 11.7 7 22.6
2010-09-23 08:00:41 51°20.976 2°50.375 16.3 11.6 8 22.6
2010-09-23 08:00:46 51°20.992 2°50.379 16.4 11.6 8 22.4
2010-09-23 08:00:51 51°21.008 2°50.383 16.8 11.6 9 22.6
2010-09-23 08:00:55 51°21.02 2°50.386 17.2 11.5 11 22.6
2010-09-23 08:01:00 51°21.036 2°50.391 18.6 11.6 10 22.5
2010-09-23 08:01:06 51°21.055 2°50.397 19.1 11.5 12 22.6
2010-09-23 08:01:11 51°21.07 2°50.403 19.8 11.5 12 22.7
2010-09-23 08:01:15 51°21.083 2°50.407 20.3 11.5 13 22.7
2010-09-23 08:01:21 51°21.102 2°50.414 20.7 11.5 13 22.7
2010-09-23 08:01:26 51°21.117 2°50.42 20.5 11.6 12 22.6
2010-09-23 08:01:31 51°21.133 2°50.426 20.6 11.5 14 22.5
2010-09-23 08:01:35 51°21.145 2°50.43 21 11.5 12 22.6
2010-09-23 08:01:41 51°21.164 2°50.437 20.9 11.6 13 22.8
2010-09-23 08:01:46 51°21.18 2°50.442 20.7 11.5 13 22.6
2010-09-23 08:01:51 51°21.195 2°50.449 20.9 11.5 14 22.7
2010-09-23 08:01:55 51°21.207 2°50.453 21.1 11.5 12 22.7
2010-09-23 08:02:01 51°21.226 2°50.46 20.5 11.5 13 22.5
2010-09-23 08:02:06 51°21.242 2°50.465 20.5 11.5 13 22.7
2010-09-23 08:02:11 51°21.257 2°50.471 20.6 11.5 13 22.9
2010-09-23 08:02:15 51°21.27 2°50.476 20.5 11.5 13 22.6
2010-09-23 08:02:21 51°21.289 2°50.482 20.5 11.5 12 22.7
2010-09-23 08:02:26 51°21.304 2°50.488 20.4 11.5 13 22.6
2010-09-23 08:02:31 51°21.32 2°50.494 20.4 11.5 13 22.7
2010-09-23 08:02:35 51°21.332 2°50.498 20.4 11.5 13 22.6
2010-09-23 08:02:41 51°21.351 2°50.505 20.4 11.5 13 22.6
2010-09-23 08:02:46 51°21.366 2°50.511 20.4 11.5 13 22.7
2010-09-23 08:02:51 51°21.382 2°50.516 20.4 11.6 13 22.6
2010-09-23 08:02:55 51°21.395 2°50.521 20.1 11.6 12 22.5
2010-09-23 08:03:00 51°21.41 2°50.526 20.1 11.6 12 22.8
2010-09-23 08:03:06 51°21.429 2°50.532 19.4 11.6 11 22.5
2010-09-23 08:03:11 51°21.445 2°50.537 18.7 11.6 10 22.7
2010-09-23 08:03:15 51°21.458 2°50.54 18 11.7 10 22.9
2010-09-23 08:03:21 51°21.477 2°50.546 18.1 11.7 10 23
2010-09-23 08:03:26 51°21.493 2°50.551 17.7 11.7 10 23
2010-09-23 08:03:31 51°21.509 2°50.555 17.8 11.7 10 22.9
2010-09-23 08:03:35 51°21.522 2°50.559 17.8 11.7 10 22.8
2010-09-23 08:03:41 51°21.541 2°50.565 17.5 11.7 10 22.8
2010-09-23 08:03:46 51°21.557 2°50.569 17.5 11.6 10 22.9
2010-09-23 08:03:51 51°21.573 2°50.574 17.5 11.6 10 22.7
2010-09-23 08:03:55 51°21.585 2°50.577 17.5 11.7 10 22.9
2010-09-23 08:04:01 51°21.605 2°50.583 17.5 11.7 10 22.9
2010-09-23 08:04:06 51°21.621 2°50.587 17.4 11.7 10 22.9
2010-09-23 08:04:11 51°21.637 2°50.592 17.3 11.7 10 23
2010-09-23 08:04:15 51°21.649 2°50.595 17.5 11.7 10 22.9
2010-09-23 08:04:21 51°21.669 2°50.6 17 11.7 9 22.9
2010-09-23 08:04:26 51°21.685 2°50.602 15.8 11.8 6 22.9
2010-09-23 08:04:31 51°21.701 2°50.606 15.1 11.8 8 22.7
2010-09-23 08:04:35 51°21.714 2°50.607 13.5 11.9 4 23
2010-09-23 08:04:41 51°21.734 2°50.61 13.1 11.8 6 22.8
2010-09-23 08:04:46 51°21.75 2°50.611 11.7 11.9 2 22.6
2010-09-23 08:04:51 51°21.767 2°50.612 10.8 11.9 3 22.5
2010-09-23 08:04:55 51°21.78 2°50.613 9.8 11.9 1 22.5
2010-09-23 08:05:01 51°21.8 2°50.612 8.1 11.9 359 22.6
2010-09-23 08:05:06 51°21.817 2°50.611 7.4 12 358 22.6
2010-09-23 08:05:11 51°21.833 2°50.609 5.3 12 356 22.4
2010-09-23 08:05:15 51°21.846 2°50.608 4.3 12 356 22.4
2010-09-23 08:05:20 51°21.862 2°50.605 2.9 12.1 352 22.3
2010-09-23 08:05:26 51°21.882 2°50.601 1.5 12.1 352 22.2
2010-09-23 08:05:31 51°21.899 2°50.596 359.5 12.2 349 22.3
2010-09-23 08:05:35 51°21.912 2°50.592 357.9 12.1 350 22.1
2010-09-23 08:05:41 51°21.932 2°50.585 356.5 12.2 347 21.9
2010-09-23 08:05:46 51°21.948 2°50.579 355.4 12.1 347 21.9
2010-09-23 08:05:51 51°21.964 2°50.571 353.6 12.1 343 21.8
2010-09-23 08:05:55 51°21.977 2°50.565 352.2 12.1 343 21.9
2010-09-23 08:06:01 51°21.996 2°50.553 349.9 12.2 338 21.9
2010-09-23 08:06:06 51°22.012 2°50.544 348 12.1 341 22
2010-09-23 08:06:11 51°22.027 2°50.533 346.5 12.2 336 22
2010-09-23 08:06:16 51°22.043 2°50.523 345.4 12.1 338 22.1
2010-09-23 08:06:21 51°22.058 2°50.511 344.8 12.2 334 22.2
2010-09-23 08:06:26 51°22.074 2°50.5 343.5 12.2 336 22.2
2010-09-23 08:06:31 51°22.089 2°50.487 342.7 12.3 331 22.2
2010-09-23 08:06:35 51°22.101 2°50.477 340.9 12.2 333 22.1
2010-09-23 08:06:41 51°22.119 2°50.46 339.7 12.3 328 22.3
2010-09-23 08:06:46 51°22.133 2°50.446 337.4 12.3 328 22.1
2010-09-23 08:06:51 51°22.147 2°50.43 336.1 12.4 326 22.3
2010-09-23 08:06:55 51°22.159 2°50.418 334.9 12.4 326 22.4
2010-09-23 08:07:01 51°22.175 2°50.398 333.2 12.5 322 22.4
2010-09-23 08:07:06 51°22.189 2°50.381 331.5 12.5 323 22.3
2010-09-23 08:07:11 51°22.203 2°50.363 330.4 12.6 321 22.3
2010-09-23 08:07:15 51°22.213 2°50.349 329.2 12.6 320 22.5
2010-09-23 08:07:21 51°22.229 2°50.327 328.1 12.6 319 22.4
2010-09-23 08:07:26 51°22.243 2°50.309 327.7 12.7 319 22.3
2010-09-23 08:07:31 51°22.256 2°50.29 326.9 12.7 318 22.3
2010-09-23 08:07:35 51°22.267 2°50.276 326.7 12.7 319 22.3
2010-09-23 08:07:40 51°22.28 2°50.256 326.5 12.7 318 22.2
2010-09-23 08:07:46 51°22.296 2°50.234 326.6 12.7 319 22.2
2010-09-23 08:07:51 51°22.309 2°50.216 326.7 12.7 319 22.2
2010-09-23 08:07:55 51°22.32 2°50.201 326.8 12.6 320 22.4
2010-09-23 08:08:01 51°22.336 2°50.18 327.3 12.7 319 22.7
2010-09-23 08:08:06 51°22.349 2°50.162 327.4 12.7 321 22.5
2010-09-23 08:08:11 51°22.363 2°50.144 328.4 12.6 322 22.6
2010-09-23 08:08:15 51°22.374 2°50.131 329.6 12.6 323 22.2
2010-09-23 08:08:21 51°22.391 2°50.111 330.6 12.5 324 22.4
2010-09-23 08:08:26 51°22.405 2°50.095 331.3 12.5 324 22.3
2010-09-23 08:08:31 51°22.419 2°50.079 332.4 12.4 326 22.6
2010-09-23 08:08:35 51°22.43 2°50.066 332.5 12.5 324 22.7
2010-09-23 08:08:41 51°22.448 2°50.048 332.8 12.4 328 22.7
2010-09-23 08:08:46 51°22.462 2°50.032 333.4 12.5 325 22.9
2010-09-23 08:08:51 51°22.477 2°50.018 333.7 12.4 327 22.8
2010-09-23 08:08:55 51°22.488 2°50.005 333.9 12.4 326 22.8
2010-09-23 08:09:01 51°22.505 2°49.987 334.2 12.4 327 22.6
2010-09-23 08:09:06 51°22.52 2°49.972 334 12.4 326 22.3
2010-09-23 08:09:11 51°22.534 2°49.957 333.7 12.3 327 21.5
2010-09-23 08:09:15 51°22.545 2°49.945 333.8 12.2 327 21
2010-09-23 08:09:21 51°22.562 2°49.927 334 12.1 326 20.5
2010-09-23 08:09:26 51°22.576 2°49.913 333.9 12 327 20.1
2010-09-23 08:09:31 51°22.59 2°49.898 334.1 12 327 19.7
2010-09-23 08:09:35 51°22.601 2°49.887 334.4 12 327 19.2
2010-09-23 08:09:41 51°22.618 2°49.869 334.4 11.9 327 18.3
2010-09-23 08:09:46 51°22.631 2°49.855 334.5 11.8 327 18
2010-09-23 08:09:51 51°22.645 2°49.841 334.7 11.8 327 17.6
2010-09-23 08:09:55 51°22.656 2°49.83 334.8 11.8 327 16.9
2010-09-23 08:10:00 51°22.67 2°49.815 334.7 11.8 327 16.6
2010-09-23 08:10:06 51°22.686 2°49.798 334.6 11.8 327 16.6
2010-09-23 08:10:11 51°22.7 2°49.784 334.7 11.7 328 16.7
2010-09-23 08:10:15 51°22.711 2°49.772 335.1 11.7 327 16.4
2010-09-23 08:10:21 51°22.727 2°49.755 334.9 11.7 328 15.9
2010-09-23 08:10:26 51°22.741 2°49.741 334.7 11.6 327 14.7
2010-09-23 08:10:31 51°22.754 2°49.727 335 11.6 327 12.9
2010-09-23 08:10:35 51°22.765 2°49.715 334.7 11.6 326 14.6
2010-09-23 08:10:41 51°22.781 2°49.699 334.5 11.6 327 15.7
2010-09-23 08:10:46 51°22.795 2°49.685 334.9 11.6 327 15.9
2010-09-23 08:10:51 51°22.808 2°49.671 335.2 11.6 328 15.8
2010-09-23 08:10:55 51°22.819 2°49.66 335.4 11.6 328 15.6
2010-09-23 08:11:01 51°22.836 2°49.644 335.6 11.6 328 15.3
2010-09-23 08:11:06 51°22.849 2°49.631 335.4 11.6 329 15.2
2010-09-23 08:11:11 51°22.863 2°49.617 335.8 11.6 328 15.9
2010-09-23 08:11:15 51°22.874 2°49.605 335.2 11.6 327 15.9
2010-09-23 08:11:21 51°22.89 2°49.588 334.7 11.6 327 15.3
2010-09-23 08:11:26 51°22.903 2°49.574 334.5 11.6 326 14
2010-09-23 08:11:31 51°22.916 2°49.56 334.4 11.6 326 13.4
2010-09-23 08:11:35 51°22.927 2°49.548 334.1 11.6 325 14.7
2010-09-23 08:11:41 51°22.943 2°49.531 334.3 11.5 327 15.3
2010-09-23 08:11:46 51°22.956 2°49.517 334.7 11.6 327 15.8
2010-09-23 08:11:51 51°22.97 2°49.503 335.1 11.6 328 16.1
2010-09-23 08:11:55 51°22.98 2°49.492 335.4 11.6 327 16.4
2010-09-23 08:12:01 51°22.997 2°49.475 335.5 11.7 328 16.6
2010-09-23 08:12:06 51°23.01 2°49.461 335.5 11.8 327 16.8
2010-09-23 08:12:11 51°23.024 2°49.447 335.4 11.8 327 17.1
2010-09-23 08:12:15 51°23.035 2°49.435 335.1 11.8 326 17.2
2010-09-23 08:12:21 51°23.052 2°49.418 335 11.9 327 17.3
2010-09-23 08:12:26 51°23.066 2°49.403 334.7 11.9 327 17.4
2010-09-23 08:12:31 51°23.079 2°49.389 334.7 11.9 327 17.7
2010-09-23 08:12:35 51°23.09 2°49.377 334.9 11.9 327 18.1